createdAt,value
2018-08-03T00:00:14.601Z,1015.16
2018-08-03T00:01:14.633Z,1015.13
2018-08-03T00:02:14.667Z,1015.18
2018-08-03T00:03:14.850Z,1015.20
2018-08-03T00:04:14.732Z,1015.19
2018-08-03T00:05:14.766Z,1015.22
2018-08-03T00:06:14.796Z,1015.17
2018-08-03T00:07:14.831Z,1015.14
2018-08-03T00:08:14.862Z,1015.13
2018-08-03T00:09:14.895Z,1015.12
2018-08-03T00:10:14.934Z,1015.15
2018-08-03T00:11:14.962Z,1015.09
2018-08-03T00:12:14.995Z,1015.14
2018-08-03T00:13:15.031Z,1015.08
2018-08-03T00:14:15.061Z,1015.06
2018-08-03T00:15:15.092Z,1015.10
2018-08-03T00:16:15.129Z,1015.08
2018-08-03T00:17:15.165Z,1015.12
2018-08-03T00:18:15.193Z,1015.10
2018-08-03T00:19:15.227Z,1015.09
2018-08-03T00:20:15.261Z,1015.07
2018-08-03T00:21:15.295Z,1015.06
2018-08-03T00:22:15.325Z,1015.06
2018-08-03T00:23:15.359Z,1015.05
2018-08-03T00:24:15.392Z,1015.08
2018-08-03T00:25:15.424Z,1015.10
2018-08-03T00:26:15.461Z,1015.12
2018-08-03T00:27:15.490Z,1015.09
2018-08-03T00:28:15.526Z,1015.09
2018-08-03T00:29:15.554Z,1015.08
2018-08-03T00:30:15.590Z,1015.07
2018-08-03T00:31:15.626Z,1015.09
2018-08-03T00:32:15.656Z,1015.08
2018-08-03T00:33:15.687Z,1015.06
2018-08-03T00:34:15.719Z,1015.06
2018-08-03T00:35:15.751Z,1015.10
2018-08-03T00:36:15.788Z,1015.10
2018-08-03T00:37:15.818Z,1015.09
2018-08-03T00:38:15.857Z,1015.07
2018-08-03T00:39:15.885Z,1015.07
2018-08-03T00:40:15.918Z,1015.05
2018-08-03T00:41:15.952Z,1015.07
2018-08-03T00:42:15.985Z,1015.05
2018-08-03T00:43:16.018Z,1015.07
2018-08-03T00:44:16.050Z,1015.07
2018-08-03T00:45:16.081Z,1015.07
2018-08-03T00:46:16.116Z,1015.07
2018-08-03T00:47:16.146Z,1015.06
2018-08-03T00:48:16.179Z,1015.08
2018-08-03T00:49:16.215Z,1015.06
2018-08-03T00:50:16.245Z,1015.06
2018-08-03T00:51:16.280Z,1015.05
2018-08-03T00:52:16.313Z,1015.07
2018-08-03T00:53:16.346Z,1015.03
2018-08-03T00:54:16.376Z,1015.04
2018-08-03T00:55:16.411Z,1015.04
2018-08-03T00:56:16.445Z,1015.02
2018-08-03T00:57:16.478Z,1015.04
2018-08-03T00:58:16.512Z,1015.08
2018-08-03T00:59:16.539Z,1015.10
2018-08-03T01:00:16.574Z,1015.12
2018-08-03T01:01:16.609Z,1015.09
2018-08-03T01:02:16.642Z,1015.13
2018-08-03T01:03:16.670Z,1015.12
2018-08-03T01:04:16.703Z,1015.09
2018-08-03T01:05:16.735Z,1015.11
2018-08-03T01:06:16.769Z,1015.09
2018-08-03T01:07:16.806Z,1015.13
2018-08-03T01:08:16.835Z,1015.09
2018-08-03T01:09:16.866Z,1015.14
2018-08-03T01:10:16.905Z,1015.10
2018-08-03T01:11:16.934Z,1015.11
2018-08-03T01:12:16.965Z,1015.09
2018-08-03T01:13:17.001Z,1015.06
2018-08-03T01:14:17.049Z,1015.04
2018-08-03T01:15:17.068Z,1015.08
2018-08-03T01:16:17.098Z,1015.03
2018-08-03T01:17:17.132Z,1015.01
2018-08-03T01:18:17.161Z,1015.05
2018-08-03T01:19:17.195Z,1015.03
2018-08-03T01:20:17.229Z,1015.00
2018-08-03T01:21:17.259Z,1015.05
2018-08-03T01:22:17.292Z,1015.03
2018-08-03T01:23:17.329Z,1015.04
2018-08-03T01:24:17.357Z,1015.06
2018-08-03T01:25:17.389Z,1015.07
2018-08-03T01:26:17.424Z,1015.08
2018-08-03T01:27:17.453Z,1015.11
2018-08-03T01:28:17.489Z,1015.07
2018-08-03T01:29:17.519Z,1015.06
2018-08-03T01:30:17.555Z,1015.09
2018-08-03T01:31:17.589Z,1015.07
2018-08-03T01:32:17.617Z,1015.04
2018-08-03T01:33:17.649Z,1015.02
2018-08-03T01:34:17.682Z,1015.05
2018-08-03T01:35:17.714Z,1015.04
2018-08-03T01:36:17.747Z,1015.03
2018-08-03T01:37:17.782Z,1015.04
2018-08-03T01:38:17.815Z,1015.04
2018-08-03T01:39:17.844Z,1015.04
2018-08-03T01:40:17.880Z,1015.00
2018-08-03T01:41:17.910Z,1015.00
2018-08-03T01:42:17.946Z,1015.00
2018-08-03T01:43:17.976Z,1015.02
2018-08-03T01:44:18.009Z,1014.99
2018-08-03T01:45:18.043Z,1015.04
2018-08-03T01:46:18.078Z,1014.99
2018-08-03T01:47:18.106Z,1015.03
2018-08-03T01:48:18.137Z,1014.97
2018-08-03T01:49:18.170Z,1014.93
2018-08-03T01:50:18.205Z,1014.93
2018-08-03T01:51:18.235Z,1014.92
2018-08-03T01:52:18.271Z,1014.91
2018-08-03T01:53:18.302Z,1014.91
2018-08-03T01:54:18.333Z,1014.90
2018-08-03T01:55:18.365Z,1014.93
2018-08-03T01:56:18.403Z,1014.90
2018-08-03T01:57:18.433Z,1014.89
2018-08-03T01:58:18.469Z,1014.91
2018-08-03T01:59:18.495Z,1014.87
2018-08-03T02:00:18.532Z,1014.91
2018-08-03T02:01:18.562Z,1014.90
2018-08-03T02:02:18.595Z,1014.90
2018-08-03T02:03:18.675Z,1014.91
2018-08-03T02:04:18.659Z,1014.90
2018-08-03T02:05:18.690Z,1014.92
2018-08-03T02:06:18.727Z,1014.92
2018-08-03T02:07:18.755Z,1014.88
2018-08-03T02:08:18.791Z,1014.87
2018-08-03T02:09:18.823Z,1014.89
2018-08-03T02:10:18.857Z,1014.87
2018-08-03T02:11:18.885Z,1014.87
2018-08-03T02:12:18.920Z,1014.87
2018-08-03T02:13:18.950Z,1014.89
2018-08-03T02:14:18.982Z,1014.88
2018-08-03T02:15:19.014Z,1014.86
2018-08-03T02:16:19.048Z,1014.87
2018-08-03T02:17:19.097Z,1014.86
2018-08-03T02:18:19.113Z,1014.90
2018-08-03T02:19:19.149Z,1014.89
2018-08-03T02:20:19.180Z,1014.91
2018-08-03T02:21:19.212Z,1014.92
2018-08-03T02:22:19.244Z,1014.91
2018-08-03T02:23:19.276Z,1014.91
2018-08-03T02:24:19.306Z,1014.92
2018-08-03T02:25:19.339Z,1014.88
2018-08-03T02:26:19.375Z,1014.90
2018-08-03T02:27:19.407Z,1014.93
2018-08-03T02:28:19.436Z,1014.91
2018-08-03T02:29:19.469Z,1014.91
2018-08-03T02:30:19.502Z,1014.89
2018-08-03T02:31:19.535Z,1014.98
2018-08-03T02:32:19.566Z,1014.92
2018-08-03T02:33:19.600Z,1014.95
2018-08-03T02:34:19.634Z,1014.94
2018-08-03T02:35:19.662Z,1014.94
2018-08-03T02:36:19.696Z,1014.94
2018-08-03T02:37:19.730Z,1014.94
2018-08-03T02:38:19.760Z,1014.98
2018-08-03T02:39:19.795Z,1014.97
2018-08-03T02:40:19.860Z,1014.97
2018-08-03T02:41:19.860Z,1014.93
2018-08-03T02:42:19.890Z,1014.96
2018-08-03T02:43:19.925Z,1014.97
2018-08-03T02:44:19.957Z,1014.97
2018-08-03T02:45:19.987Z,1014.99
2018-08-03T02:46:20.026Z,1014.98
2018-08-03T02:47:20.051Z,1015.01
2018-08-03T02:48:20.086Z,1015.00
2018-08-03T02:49:20.116Z,1015.03
2018-08-03T02:50:20.147Z,1015.00
2018-08-03T02:51:20.183Z,1015.02
2018-08-03T02:52:20.216Z,1015.00
2018-08-03T02:53:20.247Z,1014.98
2018-08-03T02:54:20.281Z,1015.06
2018-08-03T02:55:20.313Z,1015.00
2018-08-03T02:56:20.346Z,1014.98
2018-08-03T02:57:20.374Z,1014.99
2018-08-03T02:58:20.407Z,1014.98
2018-08-03T02:59:20.439Z,1014.99
2018-08-03T03:00:20.475Z,1015.00
2018-08-03T03:01:20.504Z,1015.01
2018-08-03T03:02:20.536Z,1014.97
2018-08-03T03:03:20.568Z,1014.98
2018-08-03T03:04:20.601Z,1015.00
2018-08-03T03:05:20.632Z,1015.01
2018-08-03T03:06:20.660Z,1014.99
2018-08-03T03:07:20.718Z,1015.04
2018-08-03T03:08:20.715Z,1015.00
2018-08-03T03:09:20.741Z,1014.98
2018-08-03T03:10:20.773Z,1015.01
2018-08-03T03:11:20.797Z,1015.04
2018-08-03T03:12:20.823Z,1015.06
2018-08-03T03:13:20.854Z,1015.06
2018-08-03T03:14:20.880Z,1015.03
2018-08-03T03:15:20.905Z,1015.03
2018-08-03T03:16:20.937Z,1015.06
2018-08-03T03:17:20.960Z,1015.06
2018-08-03T03:18:20.993Z,1015.03
2018-08-03T03:19:21.034Z,1015.07
2018-08-03T03:20:21.044Z,1015.03
2018-08-03T03:21:21.072Z,1015.04
2018-08-03T03:22:21.103Z,1015.09
2018-08-03T03:23:21.127Z,1015.06
2018-08-03T03:24:21.155Z,1015.07
2018-08-03T03:25:21.180Z,1015.05
2018-08-03T03:26:21.208Z,1015.07
2018-08-03T03:27:21.252Z,1015.12
2018-08-03T03:28:21.261Z,1015.12
2018-08-03T03:29:21.289Z,1015.13
2018-08-03T03:30:21.323Z,1015.15
2018-08-03T03:31:21.345Z,1015.14
2018-08-03T03:32:21.373Z,1015.15
2018-08-03T03:33:21.429Z,1015.20
2018-08-03T03:34:21.427Z,1015.15
2018-08-03T03:35:21.453Z,1015.17
2018-08-03T03:36:21.481Z,1015.18
2018-08-03T03:37:21.507Z,1015.18
2018-08-03T03:38:21.537Z,1015.17
2018-08-03T03:39:21.560Z,1015.18
2018-08-03T03:40:21.588Z,1015.19
2018-08-03T03:41:21.615Z,1015.20
2018-08-03T03:42:21.646Z,1015.18
2018-08-03T03:43:21.669Z,1015.15
2018-08-03T03:44:21.700Z,1015.13
2018-08-03T03:45:21.727Z,1015.15
2018-08-03T03:46:21.754Z,1015.12
2018-08-03T03:47:21.782Z,1015.10
2018-08-03T03:48:21.811Z,1015.14
2018-08-03T03:49:21.834Z,1015.13
2018-08-03T03:50:21.860Z,1015.10
2018-08-03T03:51:21.887Z,1015.09
2018-08-03T03:52:21.917Z,1015.09
2018-08-03T03:53:21.944Z,1015.09
2018-08-03T03:54:21.971Z,1015.05
2018-08-03T03:55:21.996Z,1015.11
2018-08-03T03:56:22.029Z,1015.09
2018-08-03T03:57:22.049Z,1015.09
2018-08-03T03:58:22.077Z,1015.16
2018-08-03T03:59:22.145Z,1015.13
2018-08-03T04:00:22.133Z,1015.12
2018-08-03T04:01:22.160Z,1015.12
2018-08-03T04:02:22.187Z,1015.10
2018-08-03T04:03:22.212Z,1015.09
2018-08-03T04:04:22.247Z,1015.13
2018-08-03T04:05:22.269Z,1015.09
2018-08-03T04:06:22.296Z,1015.13
2018-08-03T04:07:22.320Z,1015.16
2018-08-03T04:08:22.346Z,1015.12
2018-08-03T04:09:22.372Z,1015.13
2018-08-03T04:10:22.403Z,1015.11
2018-08-03T04:11:22.431Z,1015.14
2018-08-03T04:12:22.528Z,1015.14
2018-08-03T04:13:22.487Z,1015.13
2018-08-03T04:14:22.511Z,1015.12
2018-08-03T04:15:22.538Z,1015.12
2018-08-03T04:16:22.564Z,1015.13
2018-08-03T04:17:22.591Z,1015.13
2018-08-03T04:18:22.616Z,1015.10
2018-08-03T04:19:22.645Z,1015.13
2018-08-03T04:20:22.673Z,1015.07
2018-08-03T04:21:22.697Z,1015.10
2018-08-03T04:22:22.727Z,1015.06
2018-08-03T04:23:22.750Z,1015.09
2018-08-03T04:24:22.777Z,1015.09
2018-08-03T04:25:22.808Z,1015.09
2018-08-03T04:26:22.832Z,1015.07
2018-08-03T04:27:22.858Z,1015.09
2018-08-03T04:28:22.886Z,1015.05
2018-08-03T04:29:22.913Z,1015.07
2018-08-03T04:30:22.940Z,1015.06
2018-08-03T04:31:22.969Z,1015.03
2018-08-03T04:32:22.994Z,1015.05
2018-08-03T04:33:23.026Z,1015.05
2018-08-03T04:34:23.051Z,1015.06
2018-08-03T04:35:23.078Z,1015.07
2018-08-03T04:36:23.105Z,1015.05
2018-08-03T04:37:23.129Z,1015.10
2018-08-03T04:38:23.157Z,1015.08
2018-08-03T04:39:23.184Z,1015.10
2018-08-03T04:40:23.211Z,1015.11
2018-08-03T04:41:23.239Z,1015.11
2018-08-03T04:42:23.344Z,1015.09
2018-08-03T04:43:23.290Z,1015.09
2018-08-03T04:44:23.420Z,1015.12
2018-08-03T04:45:23.346Z,1015.08
2018-08-03T04:46:23.377Z,1015.06
2018-08-03T04:47:23.400Z,1015.07
2018-08-03T04:48:23.426Z,1015.07
2018-08-03T04:49:23.455Z,1015.08
2018-08-03T04:50:23.483Z,1015.11
2018-08-03T04:51:23.507Z,1015.09
2018-08-03T04:52:23.537Z,1015.10
2018-08-03T04:53:23.561Z,1015.11
2018-08-03T04:54:23.592Z,1015.09
2018-08-03T04:55:23.615Z,1015.11
2018-08-03T04:56:23.645Z,1015.11
2018-08-03T04:57:23.670Z,1015.14
2018-08-03T04:58:23.700Z,1015.13
2018-08-03T04:59:23.724Z,1015.14
2018-08-03T05:00:23.756Z,1015.17
2018-08-03T05:01:23.781Z,1015.14
2018-08-03T05:02:23.807Z,1015.19
2018-08-03T05:03:23.835Z,1015.20
2018-08-03T05:04:23.859Z,1015.21
2018-08-03T05:05:23.889Z,1015.24
2018-08-03T05:06:23.915Z,1015.19
2018-08-03T05:07:23.941Z,1015.27
2018-08-03T05:08:23.968Z,1015.25
2018-08-03T05:09:23.999Z,1015.29
2018-08-03T05:10:24.027Z,1015.24
2018-08-03T05:11:24.053Z,1015.26
2018-08-03T05:12:24.077Z,1015.27
2018-08-03T05:13:24.105Z,1015.29
2018-08-03T05:14:24.134Z,1015.27
2018-08-03T05:15:24.172Z,1015.27
2018-08-03T05:16:24.190Z,1015.27
2018-08-03T05:17:24.217Z,1015.29
2018-08-03T05:18:24.244Z,1015.29
2018-08-03T05:19:24.269Z,1015.27
2018-08-03T05:20:24.296Z,1015.28
2018-08-03T05:21:24.336Z,1015.29
2018-08-03T05:22:24.352Z,1015.29
2018-08-03T05:23:24.383Z,1015.30
2018-08-03T05:24:24.408Z,1015.27
2018-08-03T05:25:24.433Z,1015.30
2018-08-03T05:26:24.466Z,1015.29
2018-08-03T05:27:24.488Z,1015.34
2018-08-03T05:28:24.519Z,1015.34
2018-08-03T05:29:24.545Z,1015.38
2018-08-03T05:30:24.633Z,1015.38
2018-08-03T05:31:24.600Z,1015.40
2018-08-03T05:32:24.628Z,1015.40
2018-08-03T05:33:24.653Z,1015.34
2018-08-03T05:34:24.683Z,1015.37
2018-08-03T05:35:24.761Z,1015.37
2018-08-03T05:36:24.808Z,1015.36
2018-08-03T05:37:24.767Z,1015.39
2018-08-03T05:38:24.793Z,1015.45
2018-08-03T05:39:24.820Z,1015.34
2018-08-03T05:40:24.848Z,1015.37
2018-08-03T05:41:24.874Z,1015.36
2018-08-03T05:42:24.920Z,1015.40
2018-08-03T05:43:24.931Z,1015.32
2018-08-03T05:44:24.959Z,1015.36
2018-08-03T05:45:24.990Z,1015.35
2018-08-03T05:46:25.015Z,1015.36
2018-08-03T05:47:25.045Z,1015.42
2018-08-03T05:48:25.072Z,1015.43
2018-08-03T05:49:25.105Z,1015.39
2018-08-03T05:50:25.129Z,1015.46
2018-08-03T05:51:25.156Z,1015.39
2018-08-03T05:52:25.249Z,1015.44
2018-08-03T05:53:25.216Z,1015.44
2018-08-03T05:54:25.241Z,1015.42
2018-08-03T05:55:25.271Z,1015.44
2018-08-03T05:56:25.301Z,1015.40
2018-08-03T05:57:25.327Z,1015.46
2018-08-03T05:58:25.360Z,1015.48
2018-08-03T05:59:25.384Z,1015.49
2018-08-03T06:00:25.413Z,1015.51
2018-08-03T06:01:25.445Z,1015.49
2018-08-03T06:02:25.474Z,1015.55
2018-08-03T06:03:25.522Z,1015.56
2018-08-03T06:04:25.532Z,1015.55
2018-08-03T06:05:28.184Z,1015.51
2018-08-03T06:06:25.592Z,1015.53
2018-08-03T06:07:25.624Z,1015.54
2018-08-03T06:08:25.687Z,1015.55
2018-08-03T06:09:25.696Z,1015.58
2018-08-03T06:10:25.737Z,1015.56
2018-08-03T06:11:25.761Z,1015.52
2018-08-03T06:12:25.799Z,1015.55
2018-08-03T06:13:25.833Z,1015.55
2018-08-03T06:14:25.868Z,1015.58
2018-08-03T06:15:25.898Z,1015.56
2018-08-03T06:16:25.936Z,1015.61
2018-08-03T06:17:25.969Z,1015.59
2018-08-03T06:18:26.007Z,1015.65
2018-08-03T06:19:26.041Z,1015.62
2018-08-03T06:20:26.076Z,1015.67
2018-08-03T06:21:26.111Z,1015.68
2018-08-03T06:22:26.143Z,1015.73
2018-08-03T06:23:26.178Z,1015.68
2018-08-03T06:24:26.216Z,1015.67
2018-08-03T06:25:26.257Z,1015.68
2018-08-03T06:26:26.286Z,1015.72
2018-08-03T06:27:26.320Z,1015.70
2018-08-03T06:28:26.387Z,1015.70
2018-08-03T06:29:26.421Z,1015.71
2018-08-03T06:30:26.428Z,1015.69
2018-08-03T06:31:26.465Z,1015.73
2018-08-03T06:32:26.499Z,1015.73
2018-08-03T06:33:26.538Z,1015.74
2018-08-03T06:34:26.574Z,1015.65
2018-08-03T06:35:26.607Z,1015.70
2018-08-03T06:36:26.644Z,1015.69
2018-08-03T06:37:26.680Z,1015.71
2018-08-03T06:38:26.717Z,1015.72
2018-08-03T06:39:26.754Z,1015.72
2018-08-03T06:40:26.796Z,1015.74
2018-08-03T06:41:26.829Z,1015.73
2018-08-03T06:42:26.861Z,1015.76
2018-08-03T06:43:26.903Z,1015.75
2018-08-03T06:44:26.937Z,1015.77
2018-08-03T06:45:26.976Z,1015.82
2018-08-03T06:46:27.011Z,1015.84
2018-08-03T06:47:27.049Z,1015.80
2018-08-03T06:48:27.125Z,1015.85
2018-08-03T06:49:27.122Z,1015.80
2018-08-03T06:50:27.159Z,1015.76
2018-08-03T06:51:27.196Z,1015.78
2018-08-03T06:52:27.234Z,1015.81
2018-08-03T06:53:27.271Z,1015.81
2018-08-03T06:54:27.309Z,1015.81
2018-08-03T06:55:27.346Z,1015.79
2018-08-03T06:56:27.388Z,1015.83
2018-08-03T06:57:27.444Z,1015.82
2018-08-03T06:58:27.460Z,1015.82
2018-08-03T06:59:27.499Z,1015.84
2018-08-03T07:00:27.551Z,1015.86
2018-08-03T07:01:27.576Z,1015.87
2018-08-03T07:02:27.610Z,1015.87
2018-08-03T07:03:27.647Z,1015.91
2018-08-03T07:04:27.720Z,1015.97
2018-08-03T07:05:27.726Z,1016.02
2018-08-03T07:06:27.763Z,1016.08
2018-08-03T07:07:27.799Z,1016.11
2018-08-03T07:08:27.877Z,1016.17
2018-08-03T07:09:27.875Z,1016.35
2018-08-03T07:10:27.920Z,1016.55
2018-08-03T07:11:27.953Z,1016.54
2018-08-03T07:12:27.994Z,1016.53
2018-08-03T07:13:28.035Z,1016.56
2018-08-03T07:14:28.080Z,1016.62
2018-08-03T07:15:31.741Z,1016.84
2018-08-03T07:16:28.143Z,1017.02
2018-08-03T07:17:28.183Z,1017.12
2018-08-03T07:18:28.217Z,1017.15
2018-08-03T07:19:28.262Z,1017.13
2018-08-03T07:20:28.419Z,1017.29
2018-08-03T07:21:28.336Z,1017.35
2018-08-03T07:22:28.374Z,1017.27
2018-08-03T07:23:28.412Z,1017.08
2018-08-03T07:24:28.452Z,1016.94
2018-08-03T07:25:28.486Z,1016.78
2018-08-03T07:26:29.337Z,1016.62
2018-08-03T07:27:28.568Z,1016.53
2018-08-03T07:28:31.281Z,1016.47
2018-08-03T07:29:28.633Z,1016.47
2018-08-03T07:30:28.672Z,1016.40
2018-08-03T07:32:32.380Z,1016.27
2018-08-03T07:33:29.388Z,1016.27
2018-08-03T07:34:28.821Z,1016.24
2018-08-03T07:35:28.851Z,1016.26
2018-08-03T07:36:28.888Z,1016.31
2018-08-03T07:37:29.024Z,1016.25
2018-08-03T07:38:28.959Z,1016.20
2018-08-03T07:39:28.992Z,1016.16
2018-08-03T07:40:29.027Z,1016.15
2018-08-03T07:41:29.060Z,1016.14
2018-08-03T07:42:29.096Z,1016.16
2018-08-03T07:43:29.196Z,1016.11
2018-08-03T07:44:29.175Z,1016.07
2018-08-03T07:45:29.199Z,1016.06
2018-08-03T07:46:29.237Z,1016.01
2018-08-03T07:47:29.273Z,1016.04
2018-08-03T07:50:29.381Z,1016.01
2018-08-03T07:51:29.421Z,1016.04
2018-08-03T07:52:29.470Z,1016.00
2018-08-03T07:53:29.500Z,1016.02
2018-08-03T07:55:37.973Z,1016.01
2018-08-03T07:56:37.204Z,1016.05
2018-08-03T08:01:37.422Z,1016.04
2018-08-03T08:02:40.074Z,1016.08
2018-08-03T08:03:37.486Z,1016.07
2018-08-03T08:05:41.597Z,1016.03
2018-08-03T08:07:33.611Z,1016.06
2018-08-03T08:08:34.320Z,1016.07
2018-08-03T08:09:30.300Z,1016.10
2018-08-03T08:10:30.297Z,1016.10
2018-08-03T08:11:30.323Z,1016.13
2018-08-03T08:12:30.360Z,1016.18
2018-08-03T08:13:30.398Z,1016.20
2018-08-03T08:14:30.434Z,1016.14
2018-08-03T08:15:30.478Z,1016.05
2018-08-03T08:16:30.506Z,1016.06
2018-08-03T08:17:30.539Z,1015.99
2018-08-03T08:18:30.581Z,1015.98
2018-08-03T08:19:30.611Z,1015.95
2018-08-03T08:20:30.651Z,1015.93
2018-08-03T08:21:30.689Z,1015.95
2018-08-03T08:22:30.721Z,1015.95
2018-08-03T08:23:30.757Z,1015.86
2018-08-03T08:24:30.797Z,1015.89
2018-08-03T08:25:30.832Z,1015.89
2018-08-03T08:26:30.869Z,1015.92
2018-08-03T08:27:30.904Z,1015.87
2018-08-03T08:28:30.939Z,1015.82
2018-08-03T08:29:30.979Z,1015.82
2018-08-03T08:30:31.015Z,1015.82
2018-08-03T08:31:31.062Z,1015.83
2018-08-03T08:32:31.088Z,1015.82
2018-08-03T08:33:31.123Z,1015.81
2018-08-03T08:34:31.162Z,1015.81
2018-08-03T08:35:31.198Z,1015.82
2018-08-03T08:36:31.235Z,1015.81
2018-08-03T08:37:31.272Z,1015.77
2018-08-03T08:38:31.306Z,1015.79
2018-08-03T08:39:31.341Z,1015.77
2018-08-03T08:40:31.379Z,1015.83
2018-08-03T08:41:31.415Z,1015.93
2018-08-03T08:42:31.454Z,1016.09
2018-08-03T08:43:31.567Z,1016.23
2018-08-03T08:44:31.527Z,1016.27
2018-08-03T08:45:31.563Z,1016.31
2018-08-03T08:46:31.629Z,1016.27
2018-08-03T08:47:31.636Z,1016.27
2018-08-03T08:48:31.676Z,1016.26
2018-08-03T08:49:31.712Z,1016.31
2018-08-03T08:50:31.751Z,1016.23
2018-08-03T08:51:31.788Z,1016.23
2018-08-03T08:52:31.822Z,1016.20
2018-08-03T08:53:31.859Z,1016.18
2018-08-03T08:54:31.898Z,1016.20
2018-08-03T08:55:31.935Z,1016.19
2018-08-03T08:56:31.971Z,1016.13
2018-08-03T08:57:32.012Z,1016.13
2018-08-03T08:58:32.049Z,1016.14
2018-08-03T08:59:32.111Z,1016.17
2018-08-03T09:00:32.123Z,1016.16
2018-08-03T09:01:32.161Z,1016.15
2018-08-03T09:02:32.199Z,1016.14
2018-08-03T09:03:32.234Z,1016.10
2018-08-03T09:04:32.274Z,1016.05
2018-08-03T09:05:32.312Z,1016.06
2018-08-03T09:06:32.351Z,1016.09
2018-08-03T09:07:32.492Z,1016.04
2018-08-03T09:08:32.422Z,1016.04
2018-08-03T09:09:32.459Z,1015.99
2018-08-03T09:10:32.497Z,1016.02
2018-08-03T09:11:32.534Z,1015.99
2018-08-03T09:12:32.574Z,1016.02
2018-08-03T09:13:32.612Z,1015.98
2018-08-03T09:14:32.651Z,1015.98
2018-08-03T09:15:32.688Z,1015.95
2018-08-03T09:16:32.726Z,1015.95
2018-08-03T09:17:32.764Z,1015.95
2018-08-03T09:18:32.825Z,1015.97
2018-08-03T09:19:32.836Z,1015.86
2018-08-03T09:20:32.877Z,1015.89
2018-08-03T09:21:32.913Z,1015.91
2018-08-03T09:22:32.951Z,1015.87
2018-08-03T09:23:32.990Z,1015.86
2018-08-03T09:24:33.076Z,1015.86
2018-08-03T09:25:33.068Z,1015.84
2018-08-03T09:26:33.111Z,1015.81
2018-08-03T09:27:33.143Z,1015.85
2018-08-03T09:28:33.212Z,1015.81
2018-08-03T09:29:33.219Z,1015.84
2018-08-03T09:30:33.258Z,1015.80
2018-08-03T09:31:33.292Z,1015.81
2018-08-03T09:32:33.333Z,1015.82
2018-08-03T09:33:33.368Z,1015.82
2018-08-03T09:34:33.408Z,1015.87
2018-08-03T09:35:33.447Z,1015.87
2018-08-03T09:36:33.543Z,1015.87
2018-08-03T09:37:33.520Z,1015.87
2018-08-03T09:38:33.559Z,1015.90
2018-08-03T09:39:33.596Z,1015.88
2018-08-03T09:40:33.635Z,1015.93
2018-08-03T09:41:33.673Z,1015.93
2018-08-03T09:42:33.711Z,1015.92
2018-08-03T09:43:33.749Z,1015.94
2018-08-03T09:44:33.789Z,1015.95
2018-08-03T09:45:33.830Z,1015.96
2018-08-03T09:46:33.864Z,1015.97
2018-08-03T09:47:33.905Z,1015.94
2018-08-03T09:48:33.941Z,1015.93
2018-08-03T09:49:33.981Z,1015.97
2018-08-03T09:50:34.020Z,1015.93
2018-08-03T09:51:34.058Z,1015.93
2018-08-03T09:52:34.094Z,1015.95
2018-08-03T09:53:34.135Z,1015.90
2018-08-03T09:54:34.243Z,1015.98
2018-08-03T09:55:34.212Z,1015.93
2018-08-03T09:56:34.249Z,1015.96
2018-08-03T09:57:34.289Z,1015.90
2018-08-03T09:58:34.325Z,1015.94
2018-08-03T09:59:34.363Z,1015.92
2018-08-03T10:00:34.405Z,1015.86
2018-08-03T10:01:34.440Z,1015.88
2018-08-03T10:02:34.481Z,1015.90
2018-08-03T10:03:34.518Z,1015.89
2018-08-03T10:04:34.560Z,1015.88
2018-08-03T10:05:34.596Z,1015.86
2018-08-03T10:06:34.635Z,1015.83
2018-08-03T10:07:34.677Z,1015.86
2018-08-03T10:08:34.709Z,1015.79
2018-08-03T10:09:34.749Z,1015.79
2018-08-03T10:10:34.788Z,1015.74
2018-08-03T10:11:34.827Z,1015.73
2018-08-03T10:12:34.983Z,1015.74
2018-08-03T10:13:34.904Z,1015.71
2018-08-03T10:14:34.944Z,1015.67
2018-08-03T10:15:35.037Z,1015.69
2018-08-03T10:16:35.022Z,1015.68
2018-08-03T10:17:35.059Z,1015.67
2018-08-03T10:18:35.099Z,1015.65
2018-08-03T10:19:35.137Z,1015.61
2018-08-03T10:20:35.174Z,1015.59
2018-08-03T10:21:35.213Z,1015.54
2018-08-03T10:22:35.251Z,1015.54
2018-08-03T10:23:35.289Z,1015.52
2018-08-03T10:24:35.330Z,1015.53
2018-08-03T10:25:35.366Z,1015.55
2018-08-03T10:26:35.409Z,1015.55
2018-08-03T10:27:35.446Z,1015.53
2018-08-03T10:28:35.482Z,1015.49
2018-08-03T10:29:35.559Z,1015.50
2018-08-03T10:30:35.565Z,1015.51
2018-08-03T10:31:35.597Z,1015.54
2018-08-03T10:32:35.639Z,1015.49
2018-08-03T10:33:35.677Z,1015.49
2018-08-03T10:34:35.719Z,1015.47
2018-08-03T10:35:35.754Z,1015.50
2018-08-03T10:36:35.793Z,1015.48
2018-08-03T10:37:35.831Z,1015.50
2018-08-03T10:38:35.870Z,1015.47
2018-08-03T10:39:35.905Z,1015.47
2018-08-03T10:40:35.945Z,1015.43
2018-08-03T10:41:35.984Z,1015.45
2018-08-03T10:42:36.024Z,1015.42
2018-08-03T10:43:36.062Z,1015.39
2018-08-03T10:44:36.100Z,1015.36
2018-08-03T10:45:36.139Z,1015.37
2018-08-03T10:46:36.279Z,1015.35
2018-08-03T10:47:36.213Z,1015.35
2018-08-03T10:48:36.270Z,1015.34
2018-08-03T10:49:36.290Z,1015.39
2018-08-03T10:50:36.330Z,1015.40
2018-08-03T10:51:36.370Z,1015.42
2018-08-03T10:52:36.408Z,1015.40
2018-08-03T10:53:36.465Z,1015.39
2018-08-03T10:54:36.490Z,1015.38
2018-08-03T10:55:36.524Z,1015.37
2018-08-03T10:56:36.562Z,1015.39
2018-08-03T10:57:36.601Z,1015.39
2018-08-03T10:58:36.639Z,1015.39
2018-08-03T10:59:36.676Z,1015.31
2018-08-03T11:00:36.719Z,1015.31
2018-08-03T11:01:36.780Z,1015.30
2018-08-03T11:02:36.794Z,1015.26
2018-08-03T11:03:36.834Z,1015.28
2018-08-03T11:04:36.871Z,1014.97
2018-08-03T11:05:36.912Z,1014.75
2018-08-03T11:06:36.950Z,1014.58
2018-08-03T11:07:36.995Z,1015.14
2018-08-03T11:08:37.029Z,1015.26
2018-08-03T11:09:37.067Z,1015.19
2018-08-03T11:10:37.105Z,1014.22
2018-08-03T11:11:37.148Z,1014.18
2018-08-03T11:12:37.181Z,1014.13
2018-08-03T11:13:37.284Z,1014.18
2018-08-03T11:14:37.263Z,1014.61
2018-08-03T11:15:37.314Z,1014.97
2018-08-03T11:16:37.336Z,1015.14
2018-08-03T11:17:37.378Z,1015.16
2018-08-03T11:18:37.415Z,1015.26
2018-08-03T11:19:37.451Z,1015.19
2018-08-03T11:20:37.492Z,1015.27
2018-08-03T11:21:37.526Z,1015.26
2018-08-03T11:22:37.568Z,1015.29
2018-08-03T11:23:37.603Z,1015.28
2018-08-03T11:24:37.643Z,1015.31
2018-08-03T11:25:37.681Z,1015.33
2018-08-03T11:26:37.720Z,1015.31
2018-08-03T11:27:37.757Z,1015.33
2018-08-03T11:28:37.796Z,1015.30
2018-08-03T11:29:37.888Z,1015.30
2018-08-03T11:30:37.872Z,1015.30
2018-08-03T11:31:37.907Z,1015.28
2018-08-03T11:32:37.946Z,1015.21
2018-08-03T11:33:37.986Z,1015.24
2018-08-03T11:34:38.025Z,1015.26
2018-08-03T11:35:38.061Z,1015.25
2018-08-03T11:36:38.258Z,1015.26
2018-08-03T11:37:38.142Z,1015.28
2018-08-03T11:38:38.181Z,1015.28
2018-08-03T11:39:38.215Z,1015.27
2018-08-03T11:40:38.258Z,1015.27
2018-08-03T11:41:38.295Z,1015.28
2018-08-03T11:42:38.336Z,1015.27
2018-08-03T11:43:38.371Z,1015.29
2018-08-03T11:44:38.410Z,1015.24
2018-08-03T11:45:38.449Z,1015.24
2018-08-03T11:46:38.488Z,1015.23
2018-08-03T11:47:38.530Z,1015.24
2018-08-03T11:48:38.567Z,1015.27
2018-08-03T11:49:38.605Z,1015.29
2018-08-03T11:50:38.649Z,1015.28
2018-08-03T11:51:38.683Z,1015.26
2018-08-03T11:52:38.725Z,1015.34
2018-08-03T11:53:38.763Z,1015.33
2018-08-03T11:54:38.804Z,1015.38
2018-08-03T11:55:38.840Z,1015.39
2018-08-03T11:56:38.882Z,1015.41
2018-08-03T11:57:38.921Z,1015.48
2018-08-03T11:58:38.960Z,1015.58
2018-08-03T11:59:38.998Z,1015.73
2018-08-03T12:00:39.040Z,1015.76
2018-08-03T12:01:39.075Z,1015.89
2018-08-03T12:02:39.114Z,1016.04
2018-08-03T12:03:39.152Z,1016.10
2018-08-03T12:04:39.192Z,1016.35
2018-08-03T12:05:39.232Z,1016.44
2018-08-03T12:06:39.414Z,1016.38
2018-08-03T12:07:39.310Z,1016.36
2018-08-03T12:08:39.348Z,1016.47
2018-08-03T12:09:39.390Z,1016.75
2018-08-03T12:10:39.427Z,1017.13
2018-08-03T12:11:39.466Z,1017.27
2018-08-03T12:12:39.508Z,1017.34
2018-08-03T12:13:39.544Z,1017.36
2018-08-03T12:14:39.583Z,1017.28
2018-08-03T12:15:39.623Z,1017.37